Time;durP1;ratioP1;P1;durP2;ratioP2;P2;SDS_P1;SDS_P2;PMS_P1;PMS_P2;Temp;Humidity;BMP_temperature;BMP_pressure;BME280_temperature;BME280_humidity;BME280_pressure;Samples;Min_cycle;Max_cycle;Signal;HPM_P1;HPM_P2
2023/06/13 00:01:53;;;;;;;;;;;14.10;58.60;;;;;;4121658;28;19933;-84
2023/06/13 00:04:23;;;;;;;;;;;14.00;58.70;;;;;;4127304;28;19975;-84
2023/06/13 00:06:45;;;;;;;;;;;14.00;58.80;;;;;;4124443;28;19921;-84
2023/06/13 00:09:06;;;;;;;;;;;14.00;58.80;;;;;;4126783;28;19924;-84
2023/06/13 00:11:27;;;;;;;;;;;14.10;58.80;;;;;;4127975;28;19910;-83
2023/06/13 00:13:48;;;;;;;;;;;14.10;58.80;;;;;;4132924;28;20476;-84
2023/06/13 00:16:09;;;;;;;;;;;14.10;58.70;;;;;;4129855;28;19960;-86
2023/06/13 00:18:30;;;;;;;;;;;14.10;58.70;;;;;;4127678;28;19917;-84
2023/06/13 00:20:54;;;;;;;;;;;14.10;58.60;;;;;;4120615;28;20589;-84
2023/06/13 00:23:15;;;;;;;;;;;14.10;58.70;;;;;;4130209;28;20255;-83
2023/06/13 00:25:36;;;;;;;;;;;14.10;58.80;;;;;;4129012;28;19996;-86
2023/06/13 00:27:57;;;;;;;;;;;14.10;58.80;;;;;;4132211;28;19921;-83
2023/06/13 00:30:18;;;;;;;;;;;14.10;58.80;;;;;;4124997;28;19933;-85
2023/06/13 00:32:38;;;;;;;;;;;14.10;58.20;;;;;;4125198;28;20105;-87
2023/06/13 00:34:59;;;;;;;;;;;14.10;58.30;;;;;;4133538;28;20673;-84
2023/06/13 00:37:20;;;;;;;;;;;14.10;57.90;;;;;;4134329;28;19922;-84
2023/06/13 00:39:41;;;;;;;;;;;14.00;58.50;;;;;;4129055;28;19928;-86
2023/06/13 00:42:02;;;;;;;;;;;14.00;57.60;;;;;;4127575;28;19989;-84
2023/06/13 00:44:23;;;;;;;;;;;14.00;57.00;;;;;;4128340;28;19914;-86
2023/06/13 00:46:45;;;;;;;;;;;14.00;57.10;;;;;;4124978;28;19942;-83
2023/06/13 00:49:06;;;;;;;;;;;14.00;57.30;;;;;;4128542;28;20117;-84
2023/06/13 00:51:28;;;;;;;;;;;14.00;56.70;;;;;;4125726;28;19918;-85
2023/06/13 00:53:49;;;;;;;;;;;14.00;56.40;;;;;;4123569;28;19925;-85
2023/06/13 00:56:10;;;;;;;;;;;13.90;56.80;;;;;;4123233;28;19945;-85
2023/06/13 00:58:31;;;;;;;;;;;13.90;57.30;;;;;;4134782;28;19944;-85
2023/06/13 01:00:52;;;;;;;;;;;13.90;57.30;;;;;;4125233;28;20376;-84
2023/06/13 01:03:16;;;;;;;;;;;13.80;56.90;;;;;;4127297;28;19945;-82
2023/06/13 01:05:38;;;;;;;;;;;13.80;57.40;;;;;;4133805;28;19998;-83
2023/06/13 01:08:00;;;;;;;;;;;13.70;56.90;;;;;;4128183;28;19920;-82
2023/06/13 01:10:21;;;;;;;;;;;13.70;56.70;;;;;;4129003;28;19945;-83
2023/06/13 01:12:51;;;;;;;;;;;13.70;57.00;;;;;;4130277;28;20434;-83
2023/06/13 01:15:15;;;;;;;;;;;13.70;57.20;;;;;;4124663;28;19977;-84
2023/06/13 01:17:40;;;;;;;;;;;13.70;56.50;;;;;;4129982;28;20065;-85
2023/06/13 01:20:04;;;;;;;;;;;13.70;56.50;;;;;;4130961;28;19925;-83
2023/06/13 01:22:42;;;;;;;;;;;13.60;56.20;;;;;;4131293;28;19980;-84
2023/06/13 01:25:12;;;;;;;;;;;13.60;56.30;;;;;;4142667;28;19913;-83
2023/06/13 01:27:33;;;;;;;;;;;13.60;56.20;;;;;;4133070;28;19918;-81
2023/06/13 01:29:54;;;;;;;;;;;13.50;56.30;;;;;;4133770;28;19945;-84
2023/06/13 01:32:18;;;;;;;;;;;13.50;56.20;;;;;;4132451;28;20467;-85
2023/06/13 01:34:40;;;;;;;;;;;13.50;56.10;;;;;;4128662;28;19916;-83
2023/06/13 01:37:01;;;;;;;;;;;13.40;55.80;;;;;;4142850;28;19914;-86
2023/06/13 01:39:22;;;;;;;;;;;13.40;55.70;;;;;;4131824;28;19913;-84
2023/06/13 01:41:42;;;;;;;;;;;13.40;55.70;;;;;;4127639;28;20111;-83
2023/06/13 01:44:05;;;;;;;;;;;13.30;55.60;;;;;;4130695;28;20363;-84
2023/06/13 01:46:27;;;;;;;;;;;13.30;55.60;;;;;;4134008;28;19922;-83
2023/06/13 01:48:55;;;;;;;;;;;13.30;55.50;;;;;;4129848;28;19914;-84
2023/06/13 01:51:29;;;;;;;;;;;13.20;55.40;;;;;;4129794;28;19918;-85
2023/06/13 01:54:00;;;;;;;;;;;13.10;55.40;;;;;;4128208;28;19926;-83
2023/06/13 01:56:25;;;;;;;;;;;13.10;55.10;;;;;;4126765;28;19932;-84
2023/06/13 01:58:54;;;;;;;;;;;13.10;55.10;;;;;;4132748;28;19918;-85
2023/06/13 02:01:20;;;;;;;;;;;13.00;55.00;;;;;;4122170;28;20005;-84
2023/06/13 02:03:41;;;;;;;;;;;13.00;54.90;;;;;;4127313;28;19941;-83
2023/06/13 02:06:02;;;;;;;;;;;12.90;55.10;;;;;;4130939;28;19925;-83
2023/06/13 02:08:23;;;;;;;;;;;12.90;54.90;;;;;;4129611;28;19997;-83
2023/06/13 02:10:44;;;;;;;;;;;12.80;55.00;;;;;;4120887;28;19918;-84
2023/06/13 02:13:05;;;;;;;;;;;12.80;55.10;;;;;;4130491;28;19922;-83
2023/06/13 02:15:26;;;;;;;;;;;12.70;55.40;;;;;;4129286;28;19960;-84
2023/06/13 02:17:47;;;;;;;;;;;12.70;55.50;;;;;;4131034;28;19932;-84
2023/06/13 02:20:12;;;;;;;;;;;12.60;55.90;;;;;;4128373;28;20029;-85
2023/06/13 02:22:33;;;;;;;;;;;12.60;55.30;;;;;;4129817;28;19977;-84
2023/06/13 02:24:55;;;;;;;;;;;12.60;55.30;;;;;;4129078;28;19910;-84
2023/06/13 02:27:15;;;;;;;;;;;12.50;55.30;;;;;;4128740;28;19957;-84
2023/06/13 02:29:36;;;;;;;;;;;12.40;55.10;;;;;;4128221;28;20065;-84
2023/06/13 02:31:57;;;;;;;;;;;12.40;55.10;;;;;;4129263;28;19929;-85
2023/06/13 02:34:18;;;;;;;;;;;12.40;55.90;;;;;;4131025;28;19921;-83
2023/06/13 02:36:39;;;;;;;;;;;12.40;56.00;;;;;;4126094;28;19918;-83
2023/06/13 02:39:03;;;;;;;;;;;12.30;56.80;;;;;;4127806;28;19940;-84
2023/06/13 02:41:24;;;;;;;;;;;12.30;56.10;;;;;;4130328;28;19920;-87
2023/06/13 02:43:45;;;;;;;;;;;12.30;56.40;;;;;;4130591;28;19910;-84
2023/06/13 02:46:06;;;;;;;;;;;12.30;56.30;;;;;;4127037;28;19917;-84
2023/06/13 02:48:27;;;;;;;;;;;12.30;58.40;;;;;;4127730;28;19920;-85
2023/06/13 02:50:48;;;;;;;;;;;12.30;58.10;;;;;;4128125;28;19922;-84
2023/06/13 02:53:09;;;;;;;;;;;12.40;60.40;;;;;;4134734;28;19914;-85
2023/06/13 02:55:30;;;;;;;;;;;12.30;59.70;;;;;;4134780;28;20328;-84
2023/06/13 02:57:51;;;;;;;;;;;12.30;60.30;;;;;;4129365;28;19922;-84
2023/06/13 03:00:13;;;;;;;;;;;12.30;59.10;;;;;;4136518;28;19902;-86
2023/06/13 03:02:36;;;;;;;;;;;12.30;59.80;;;;;;4129352;28;19922;-84
2023/06/13 03:04:57;;;;;;;;;;;12.30;59.60;;;;;;4124903;28;20241;-85
2023/06/13 03:07:18;;;;;;;;;;;12.30;59.30;;;;;;4132774;28;19918;-84
2023/06/13 03:09:39;;;;;;;;;;;12.30;60.10;;;;;;4125955;28;19922;-84
2023/06/13 03:12:00;;;;;;;;;;;12.30;60.60;;;;;;4134799;28;19914;-84
2023/06/13 03:14:21;;;;;;;;;;;12.30;60.40;;;;;;4124947;28;19929;-85
2023/06/13 03:16:42;;;;;;;;;;;12.30;60.70;;;;;;4127975;28;19913;-83
2023/06/13 03:19:03;;;;;;;;;;;12.30;60.70;;;;;;4128384;28;20047;-84
2023/06/13 03:21:24;;;;;;;;;;;12.30;61.80;;;;;;4129257;28;19941;-84
2023/06/13 03:23:45;;;;;;;;;;;12.30;61.00;;;;;;4128899;28;19937;-84
2023/06/13 03:26:06;;;;;;;;;;;12.30;60.20;;;;;;4126638;28;20007;-87
2023/06/13 03:28:29;;;;;;;;;;;12.30;61.60;;;;;;4124587;28;19918;-84
2023/06/13 03:30:51;;;;;;;;;;;12.30;62.30;;;;;;4128337;28;19940;-82
2023/06/13 03:33:12;;;;;;;;;;;12.30;62.30;;;;;;4123722;28;19917;-84
2023/06/13 03:35:34;;;;;;;;;;;12.30;61.90;;;;;;4129288;28;19989;-82
2023/06/13 03:37:55;;;;;;;;;;;12.30;61.90;;;;;;4123931;28;19923;-84
2023/06/13 03:40:16;;;;;;;;;;;12.30;61.50;;;;;;4128070;28;19977;-83
2023/06/13 03:42:37;;;;;;;;;;;12.30;61.70;;;;;;4127992;28;20348;-84
2023/06/13 03:44:59;;;;;;;;;;;12.30;62.10;;;;;;4128046;28;20331;-84
2023/06/13 03:47:20;;;;;;;;;;;12.30;62.80;;;;;;4139950;28;19926;-84
2023/06/13 03:49:42;;;;;;;;;;;12.40;64.40;;;;;;4128300;28;19918;-86
2023/06/13 03:52:04;;;;;;;;;;;12.40;64.60;;;;;;4130990;28;19933;-84
2023/06/13 03:54:24;;;;;;;;;;;12.50;64.50;;;;;;4128906;28;19933;-84
2023/06/13 03:56:45;;;;;;;;;;;12.50;65.00;;;;;;4128565;28;19919;-84
2023/06/13 03:59:06;;;;;;;;;;;12.60;65.60;;;;;;4130037;28;19922;-84
2023/06/13 04:01:28;;;;;;;;;;;12.80;65.90;;;;;;4129380;28;20410;-83
2023/06/13 04:03:49;;;;;;;;;;;12.80;66.60;;;;;;4123853;28;20391;-82
2023/06/13 04:06:12;;;;;;;;;;;12.80;65.80;;;;;;4127440;28;19917;-82
2023/06/13 04:08:35;;;;;;;;;;;12.80;65.50;;;;;;4124335;28;19918;-84
2023/06/13 04:10:56;;;;;;;;;;;13.00;64.80;;;;;;4129630;28;19930;-84
2023/06/13 04:13:17;;;;;;;;;;;12.90;64.90;;;;;;4123926;28;20605;-83
2023/06/13 04:15:38;;;;;;;;;;;13.00;64.50;;;;;;4124814;28;19920;-84
2023/06/13 04:17:59;;;;;;;;;;;13.00;64.20;;;;;;4125830;28;19918;-83
2023/06/13 04:20:21;;;;;;;;;;;13.10;64.00;;;;;;4130351;28;20009;-82
2023/06/13 04:22:42;;;;;;;;;;;13.20;64.00;;;;;;4130541;28;20008;-83
2023/06/13 04:25:04;;;;;;;;;;;13.20;63.70;;;;;;4130806;28;19914;-85
2023/06/13 04:27:28;;;;;;;;;;;13.30;63.50;;;;;;4130422;28;19985;-83
2023/06/13 04:29:49;;;;;;;;;;;13.40;63.20;;;;;;4133410;28;19922;-83
2023/06/13 04:32:17;;;;;;;;;;;13.50;63.00;;;;;;4142379;28;19942;-84
2023/06/13 04:34:41;;;;;;;;;;;13.60;63.10;;;;;;4140178;28;19941;-84
2023/06/13 04:37:03;;;;;;;;;;;13.60;62.80;;;;;;4139520;28;19925;-85
2023/06/13 04:39:24;;;;;;;;;;;13.70;62.10;;;;;;4138724;28;19936;-87
2023/06/13 04:41:48;;;;;;;;;;;13.70;61.30;;;;;;4137150;28;19910;-84
2023/06/13 04:44:09;;;;;;;;;;;13.80;61.50;;;;;;4129640;28;20354;-85
2023/06/13 04:46:33;;;;;;;;;;;13.90;61.20;;;;;;4126462;28;19932;-83
2023/06/13 04:48:54;;;;;;;;;;;14.00;61.20;;;;;;4128142;28;19909;-83
2023/06/13 04:51:15;;;;;;;;;;;14.00;60.60;;;;;;4134262;28;20362;-85
2023/06/13 04:53:37;;;;;;;;;;;14.10;61.30;;;;;;4129697;28;20384;-84
2023/06/13 04:55:58;;;;;;;;;;;14.20;60.50;;;;;;4130961;28;19929;-84
2023/06/13 04:58:19;;;;;;;;;;;14.10;59.40;;;;;;4125788;28;19918;-84
2023/06/13 05:00:40;;;;;;;;;;;14.20;59.50;;;;;;4126828;28;19921;-83
2023/06/13 05:03:02;;;;;;;;;;;14.30;60.50;;;;;;4125126;28;19917;-84
2023/06/13 05:05:23;;;;;;;;;;;14.30;59.50;;;;;;4127937;28;19917;-83
2023/06/13 05:07:47;;;;;;;;;;;14.40;59.20;;;;;;4131034;28;20400;-81
2023/06/13 05:10:08;;;;;;;;;;;14.40;59.10;;;;;;4140441;28;20287;-85
2023/06/13 05:12:29;;;;;;;;;;;14.50;59.50;;;;;;4126419;28;19964;-82
2023/06/13 05:14:50;;;;;;;;;;;14.50;58.70;;;;;;4126834;28;20000;-81
2023/06/13 05:17:12;;;;;;;;;;;14.60;59.30;;;;;;4131311;28;19960;-85
2023/06/13 05:19:37;;;;;;;;;;;14.60;59.30;;;;;;4129763;28;20421;-83
2023/06/13 05:22:02;;;;;;;;;;;14.70;58.50;;;;;;4131272;28;19974;-84
2023/06/13 05:24:23;;;;;;;;;;;14.80;58.70;;;;;;4130980;28;19910;-84
2023/06/13 05:26:45;;;;;;;;;;;14.80;58.30;;;;;;4140992;28;19913;-84
2023/06/13 05:29:05;;;;;;;;;;;14.80;58.40;;;;;;4132187;28;19918;-84
2023/06/13 05:31:27;;;;;;;;;;;14.90;57.80;;;;;;4134162;28;19910;-83
2023/06/13 05:33:48;;;;;;;;;;;14.90;57.10;;;;;;4132045;28;19918;-83
2023/06/13 05:36:09;;;;;;;;;;;14.90;57.00;;;;;;4135488;28;19917;-85
2023/06/13 05:38:31;;;;;;;;;;;14.90;57.20;;;;;;4131742;28;19914;-84
2023/06/13 05:40:52;;;;;;;;;;;15.00;57.60;;;;;;4136370;28;19913;-83
2023/06/13 05:43:19;;;;;;;;;;;15.00;57.20;;;;;;4132961;28;19918;-85
2023/06/13 05:45:40;;;;;;;;;;;15.00;57.00;;;;;;4136264;28;19918;-86
2023/06/13 05:48:00;;;;;;;;;;;15.10;57.30;;;;;;4131645;28;19929;-85
2023/06/13 05:50:21;;;;;;;;;;;15.10;56.90;;;;;;4138446;28;19937;-84
2023/06/13 05:52:42;;;;;;;;;;;15.20;57.10;;;;;;4142997;28;19933;-85
2023/06/13 05:55:04;;;;;;;;;;;15.20;56.60;;;;;;4135439;28;19918;-84
2023/06/13 05:57:36;;;;;;;;;;;15.30;57.00;;;;;;4130954;28;20374;-85
2023/06/13 05:59:57;;;;;;;;;;;15.40;56.70;;;;;;4130461;28;19914;-83
2023/06/13 06:02:18;;;;;;;;;;;15.30;56.70;;;;;;4134501;28;19910;-83
2023/06/13 06:04:38;;;;;;;;;;;15.30;56.80;;;;;;4130196;28;19972;-84
2023/06/13 06:06:59;;;;;;;;;;;15.40;57.00;;;;;;4132717;28;20391;-85
2023/06/13 06:09:20;;;;;;;;;;;15.40;56.80;;;;;;4132292;28;20419;-81
2023/06/13 06:11:41;;;;;;;;;;;15.50;56.30;;;;;;4129220;28;19990;-84
2023/06/13 06:14:02;;;;;;;;;;;15.50;56.10;;;;;;4131375;28;19914;-83
2023/06/13 06:16:23;;;;;;;;;;;15.60;56.60;;;;;;4133114;28;19916;-85
2023/06/13 06:18:43;;;;;;;;;;;15.70;56.30;;;;;;4131196;28;19914;-85
2023/06/13 06:21:06;;;;;;;;;;;15.70;56.00;;;;;;4131336;28;19965;-83
2023/06/13 06:23:27;;;;;;;;;;;15.80;56.20;;;;;;4134564;28;19932;-83
2023/06/13 06:25:48;;;;;;;;;;;15.90;56.80;;;;;;4133880;28;19926;-85
2023/06/13 06:28:09;;;;;;;;;;;16.00;55.60;;;;;;4134282;28;19906;-84
2023/06/13 06:30:30;;;;;;;;;;;16.00;55.60;;;;;;4134741;28;19963;-84
2023/06/13 06:32:51;;;;;;;;;;;16.10;56.30;;;;;;4132109;28;19914;-84
2023/06/13 06:35:14;;;;;;;;;;;16.20;55.50;;;;;;4131626;28;20090;-84
2023/06/13 06:37:35;;;;;;;;;;;16.30;55.40;;;;;;4133163;28;20351;-84
2023/06/13 06:39:56;;;;;;;;;;;16.30;54.60;;;;;;4131438;28;20380;-83
2023/06/13 06:42:16;;;;;;;;;;;16.30;54.60;;;;;;4129808;28;19937;-84
2023/06/13 06:44:37;;;;;;;;;;;16.40;54.90;;;;;;4134231;28;19957;-85
2023/06/13 06:46:58;;;;;;;;;;;16.40;55.10;;;;;;4127542;28;20314;-84
2023/06/13 06:49:19;;;;;;;;;;;16.40;54.50;;;;;;4128677;28;20103;-84
2023/06/13 06:51:40;;;;;;;;;;;16.50;55.00;;;;;;4129260;28;19910;-85
2023/06/13 06:54:00;;;;;;;;;;;16.50;54.90;;;;;;4134435;28;19922;-84
2023/06/13 06:56:22;;;;;;;;;;;16.60;54.80;;;;;;4129670;28;19910;-83
2023/06/13 06:58:42;;;;;;;;;;;16.60;54.80;;;;;;4142734;28;19925;-86
2023/06/13 07:01:03;;;;;;;;;;;16.70;54.70;;;;;;4130357;28;20368;-83
2023/06/13 07:03:24;;;;;;;;;;;16.70;54.20;;;;;;4131184;28;19937;-84
2023/06/13 07:05:45;;;;;;;;;;;16.80;54.40;;;;;;4125892;28;19914;-84
2023/06/13 07:08:06;;;;;;;;;;;16.80;53.30;;;;;;4126832;28;19913;-84
2023/06/13 07:10:27;;;;;;;;;;;16.90;53.70;;;;;;4129039;28;19929;-83
2023/06/13 07:12:48;;;;;;;;;;;16.90;53.40;;;;;;4131054;28;19922;-84
2023/06/13 07:15:09;;;;;;;;;;;17.00;53.40;;;;;;4131724;28;19914;-84
2023/06/13 07:17:30;;;;;;;;;;;17.10;53.40;;;;;;4130603;28;20331;-83
2023/06/13 07:19:51;;;;;;;;;;;17.10;53.30;;;;;;4131068;28;19942;-84
2023/06/13 07:22:12;;;;;;;;;;;17.20;53.60;;;;;;4130276;28;19914;-83
2023/06/13 07:24:33;;;;;;;;;;;17.20;52.20;;;;;;4140994;28;20005;-83
2023/06/13 07:26:54;;;;;;;;;;;17.30;52.30;;;;;;4130013;28;20482;-83
2023/06/13 07:29:15;;;;;;;;;;;17.40;52.80;;;;;;4127798;28;19996;-83
2023/06/13 07:31:36;;;;;;;;;;;17.40;52.80;;;;;;4129688;28;19914;-86
2023/06/13 07:33:57;;;;;;;;;;;17.40;52.60;;;;;;4125455;28;19922;-83
2023/06/13 07:36:19;;;;;;;;;;;17.50;52.70;;;;;;4128157;28;20002;-83
2023/06/13 07:38:40;;;;;;;;;;;17.60;52.70;;;;;;4126403;28;20186;-84
2023/06/13 07:41:00;;;;;;;;;;;17.60;51.80;;;;;;4133468;28;19914;-85
2023/06/13 07:43:21;;;;;;;;;;;17.70;52.10;;;;;;4131295;28;19965;-82
2023/06/13 07:45:42;;;;;;;;;;;17.70;51.60;;;;;;4131467;28;20192;-84
2023/06/13 07:48:05;;;;;;;;;;;17.90;52.20;;;;;;4118511;28;22183;-85
2023/06/13 07:50:26;;;;;;;;;;;17.90;52.40;;;;;;4130318;28;19910;-84
2023/06/13 07:52:46;;;;;;;;;;;17.90;51.40;;;;;;4134205;28;19906;-83
2023/06/13 07:55:08;;;;;;;;;;;18.00;51.60;;;;;;4127214;28;19920;-83
2023/06/13 07:57:29;;;;;;;;;;;18.00;50.80;;;;;;4130505;28;20504;-84
2023/06/13 07:59:50;;;;;;;;;;;18.10;51.30;;;;;;4126750;28;19913;-84
2023/06/13 08:02:10;;;;;;;;;;;18.10;50.80;;;;;;4129777;28;19914;-84
2023/06/13 08:04:31;;;;;;;;;;;18.20;51.40;;;;;;4131646;28;19920;-84
2023/06/13 08:06:52;;;;;;;;;;;18.20;51.40;;;;;;4132831;28;20391;-83
2023/06/13 08:09:13;;;;;;;;;;;18.30;51.70;;;;;;4130864;28;19921;-87
2023/06/13 08:11:34;;;;;;;;;;;18.30;50.50;;;;;;4141659;28;19969;-83
2023/06/13 08:13:55;;;;;;;;;;;18.40;50.30;;;;;;4133069;28;19925;-84
2023/06/13 08:16:16;;;;;;;;;;;18.50;50.50;;;;;;4134298;28;19917;-84
2023/06/13 08:18:38;;;;;;;;;;;18.50;49.40;;;;;;4128329;28;20016;-84
2023/06/13 08:20:59;;;;;;;;;;;18.60;49.80;;;;;;4129280;28;19913;-82
2023/06/13 08:23:22;;;;;;;;;;;18.70;50.40;;;;;;4127131;28;19923;-83
2023/06/13 08:25:44;;;;;;;;;;;18.70;49.30;;;;;;4128931;28;19921;-84
2023/06/13 08:28:07;;;;;;;;;;;18.70;48.90;;;;;;4130000;28;19965;-83
2023/06/13 08:30:27;;;;;;;;;;;18.80;48.50;;;;;;4130548;28;19933;-84
2023/06/13 08:32:52;;;;;;;;;;;18.80;47.20;;;;;;4128301;28;20028;-84
2023/06/13 08:35:13;;;;;;;;;;;18.80;47.90;;;;;;4129578;28;20008;-83
2023/06/13 08:37:34;;;;;;;;;;;18.90;48.30;;;;;;4130149;28;19910;-84
2023/06/13 08:39:55;;;;;;;;;;;18.90;48.20;;;;;;4129245;28;19914;-83
2023/06/13 08:42:16;;;;;;;;;;;19.00;48.30;;;;;;4128632;28;19925;-83
2023/06/13 08:44:37;;;;;;;;;;;19.00;48.60;;;;;;4129471;28;19914;-83
2023/06/13 08:46:58;;;;;;;;;;;19.10;47.90;;;;;;4130424;28;19922;-84
2023/06/13 08:49:19;;;;;;;;;;;19.20;48.80;;;;;;4133449;28;19910;-84
2023/06/13 08:51:41;;;;;;;;;;;19.20;48.80;;;;;;4127951;28;19984;-84
2023/06/13 08:54:03;;;;;;;;;;;19.30;48.00;;;;;;4126255;28;19921;-82
2023/06/13 08:56:25;;;;;;;;;;;19.30;46.40;;;;;;4128691;28;19914;-83
2023/06/13 08:58:48;;;;;;;;;;;19.30;45.50;;;;;;4130073;28;20021;-84
2023/06/13 09:01:10;;;;;;;;;;;19.40;45.80;;;;;;4142016;28;19972;-84
2023/06/13 09:03:31;;;;;;;;;;;19.40;46.20;;;;;;4129666;28;19910;-84
2023/06/13 09:05:52;;;;;;;;;;;19.40;46.30;;;;;;4130808;28;20283;-83
2023/06/13 09:08:14;;;;;;;;;;;19.40;45.40;;;;;;4129671;28;19968;-85
2023/06/13 09:10:35;;;;;;;;;;;19.40;45.60;;;;;;4129601;28;20284;-84
2023/06/13 09:12:56;;;;;;;;;;;19.40;46.00;;;;;;4126263;28;19925;-85
2023/06/13 09:15:17;;;;;;;;;;;19.50;45.70;;;;;;4130510;28;19914;-83
2023/06/13 09:17:38;;;;;;;;;;;19.50;46.30;;;;;;4130639;28;19917;-83
2023/06/13 09:19:59;;;;;;;;;;;19.60;46.60;;;;;;4133996;28;19918;-83
2023/06/13 09:22:20;;;;;;;;;;;19.70;46.50;;;;;;4127913;28;19914;-83
2023/06/13 09:24:42;;;;;;;;;;;19.70;46.20;;;;;;4132832;28;20028;-84
2023/06/13 09:27:03;;;;;;;;;;;19.70;44.80;;;;;;4136714;28;19922;-85
2023/06/13 09:29:31;;;;;;;;;;;19.70;45.20;;;;;;4145210;28;20371;-83
2023/06/13 09:31:57;;;;;;;;;;;19.80;45.50;;;;;;4129647;28;19918;-84
2023/06/13 09:34:17;;;;;;;;;;;19.70;46.60;;;;;;4132727;28;19964;-84
2023/06/13 09:36:38;;;;;;;;;;;19.90;47.00;;;;;;4137694;28;19953;-84
2023/06/13 09:38:59;;;;;;;;;;;19.90;46.70;;;;;;4128710;28;20041;-83
2023/06/13 09:41:21;;;;;;;;;;;20.00;45.80;;;;;;4130388;28;20376;-83
2023/06/13 09:43:42;;;;;;;;;;;19.90;46.30;;;;;;4135364;28;19945;-84
2023/06/13 09:46:03;;;;;;;;;;;20.00;47.20;;;;;;4132982;28;20503;-83
2023/06/13 09:48:24;;;;;;;;;;;20.00;47.40;;;;;;4129660;28;19925;-84
2023/06/13 09:50:45;;;;;;;;;;;20.00;47.80;;;;;;4132765;28;19910;-84
2023/06/13 09:53:09;;;;;;;;;;;20.00;47.20;;;;;;4129725;28;19914;-83
2023/06/13 09:55:30;;;;;;;;;;;20.10;46.90;;;;;;4129139;28;19914;-83
2023/06/13 09:57:51;;;;;;;;;;;20.10;46.90;;;;;;4129867;28;19922;-83
2023/06/13 10:00:13;;;;;;;;;;;20.20;46.90;;;;;;4133049;28;19918;-82
2023/06/13 10:02:33;;;;;;;;;;;20.20;46.70;;;;;;4135836;28;19929;-84
2023/06/13 10:04:55;;;;;;;;;;;20.10;46.20;;;;;;4130527;28;19914;-82
2023/06/13 10:07:16;;;;;;;;;;;20.20;45.50;;;;;;4135132;28;19924;-81
2023/06/13 10:09:38;;;;;;;;;;;20.20;45.20;;;;;;4135107;28;19913;-83
2023/06/13 10:12:00;;;;;;;;;;;20.20;46.00;;;;;;4131912;28;19925;-82
2023/06/13 10:14:22;;;;;;;;;;;20.10;45.40;;;;;;4134054;28;19929;-82
2023/06/13 10:16:47;;;;;;;;;;;20.20;46.10;;;;;;4131529;28;20360;-82
2023/06/13 10:19:08;;;;;;;;;;;20.20;46.10;;;;;;4131818;28;19922;-85
2023/06/13 10:21:29;;;;;;;;;;;20.20;45.40;;;;;;4128602;28;19911;-82
2023/06/13 10:23:50;;;;;;;;;;;20.10;45.70;;;;;;4132027;28;19914;-82
2023/06/13 10:26:15;;;;;;;;;;;20.20;45.40;;;;;;4133582;28;19929;-83
2023/06/13 10:28:51;;;;;;;;;;;20.20;45.50;;;;;;4131979;28;19939;-82
2023/06/13 10:31:26;;;;;;;;;;;20.30;44.80;;;;;;4137415;28;19925;-83
2023/06/13 10:33:47;;;;;;;;;;;20.30;43.40;;;;;;4130290;28;19906;-85
2023/06/13 10:36:16;;;;;;;;;;;20.30;44.20;;;;;;4138651;28;19957;-84
2023/06/13 10:38:58;;;;;;;;;;;20.40;44.40;;;;;;4132080;28;19921;-83
2023/06/13 10:41:43;;;;;;;;;;;20.40;43.10;;;;;;4134835;28;19913;-85
2023/06/13 10:44:10;;;;;;;;;;;20.30;43.60;;;;;;4131638;28;20003;-82
2023/06/13 10:46:32;;;;;;;;;;;20.40;43.70;;;;;;4137549;28;19914;-82
2023/06/13 10:48:53;;;;;;;;;;;20.40;43.00;;;;;;4133715;28;19920;-84
2023/06/13 10:51:18;;;;;;;;;;;20.50;43.50;;;;;;4131212;28;20569;-83
2023/06/13 10:53:39;;;;;;;;;;;20.50;42.40;;;;;;4130239;28;19910;-83
2023/06/13 10:56:01;;;;;;;;;;;20.60;42.70;;;;;;4134037;28;19914;-85
2023/06/13 10:58:25;;;;;;;;;;;20.60;42.60;;;;;;4129758;28;19984;-84
2023/06/13 11:00:45;;;;;;;;;;;20.60;41.70;;;;;;4131385;28;19937;-84
2023/06/13 11:03:07;;;;;;;;;;;20.50;42.00;;;;;;4132169;28;20413;-85
2023/06/13 11:05:29;;;;;;;;;;;20.60;42.30;;;;;;4133424;28;19918;-82
2023/06/13 11:07:50;;;;;;;;;;;20.60;42.30;;;;;;4131546;28;20230;-84
2023/06/13 11:10:14;;;;;;;;;;;20.50;41.80;;;;;;4131871;28;19918;-82
2023/06/13 11:12:35;;;;;;;;;;;20.60;41.90;;;;;;4130291;28;19981;-84
2023/06/13 11:14:58;;;;;;;;;;;20.50;41.90;;;;;;4126275;28;19918;-83
2023/06/13 11:17:19;;;;;;;;;;;20.60;42.30;;;;;;4130921;28;19977;-83
2023/06/13 11:19:40;;;;;;;;;;;20.40;42.10;;;;;;4133882;28;19914;-83
2023/06/13 11:22:02;;;;;;;;;;;20.60;42.70;;;;;;4128124;28;20438;-82
2023/06/13 11:24:24;;;;;;;;;;;20.50;41.90;;;;;;4133465;28;19996;-82
2023/06/13 11:26:45;;;;;;;;;;;20.50;41.00;;;;;;4131545;28;19925;-83
2023/06/13 11:29:07;;;;;;;;;;;20.60;42.50;;;;;;4133478;28;19921;-82
2023/06/13 11:31:28;;;;;;;;;;;20.60;42.20;;;;;;4137564;28;19921;-81
2023/06/13 11:33:50;;;;;;;;;;;20.60;42.40;;;;;;4129670;28;19914;-82
2023/06/13 11:36:12;;;;;;;;;;;20.70;42.10;;;;;;4133659;28;20378;-82
2023/06/13 11:38:40;;;;;;;;;;;20.70;42.00;;;;;;4126576;28;20021;-83
2023/06/13 11:41:01;;;;;;;;;;;20.70;41.20;;;;;;4130668;28;19913;-82
2023/06/13 11:43:28;;;;;;;;;;;20.70;42.40;;;;;;4132925;28;19910;-84
2023/06/13 11:45:51;;;;;;;;;;;20.80;42.60;;;;;;4130877;28;19921;-83
2023/06/13 11:48:17;;;;;;;;;;;20.80;42.10;;;;;;4130579;28;20279;-82
2023/06/13 11:50:38;;;;;;;;;;;20.80;41.50;;;;;;4129848;28;19925;-84
2023/06/13 11:53:06;;;;;;;;;;;20.80;41.80;;;;;;4132579;28;19918;-83
2023/06/13 11:55:26;;;;;;;;;;;21.00;41.80;;;;;;4135239;28;19921;-83
2023/06/13 12:04:19;;;;;;;;;;;20.90;42.80;;;;;;4180926;23;20065;-83
2023/06/13 12:06:53;;;;;;;;;;;20.90;41.40;;;;;;4118966;28;19980;-82
2023/06/13 12:09:17;;;;;;;;;;;20.90;42.10;;;;;;4106444;28;19948;-84
2023/06/13 12:11:37;;;;;;;;;;;20.90;41.80;;;;;;4108576;28;19922;-80
2023/06/13 12:14:02;;;;;;;;;;;20.90;41.40;;;;;;4110061;28;19914;-84
2023/06/13 12:16:24;;;;;;;;;;;21.00;41.60;;;;;;4111331;28;19914;-82
2023/06/13 12:18:49;;;;;;;;;;;21.00;41.90;;;;;;4101256;28;19914;-84
2023/06/13 12:21:10;;;;;;;;;;;21.00;42.40;;;;;;4099803;28;19977;-84
2023/06/13 12:23:33;;;;;;;;;;;21.00;42.90;;;;;;4110484;28;19925;-82
2023/06/13 12:25:57;;;;;;;;;;;20.90;43.00;;;;;;4111461;28;20344;-83
2023/06/13 12:28:19;;;;;;;;;;;20.90;42.10;;;;;;4098382;28;19990;-82
2023/06/13 12:30:41;;;;;;;;;;;21.00;43.60;;;;;;4105019;28;19990;-84
2023/06/13 12:33:04;;;;;;;;;;;21.00;43.50;;;;;;4111509;28;19978;-83
2023/06/13 12:35:26;;;;;;;;;;;21.10;43.00;;;;;;4114662;28;19917;-83
2023/06/13 12:37:58;;;;;;;;;;;21.00;42.70;;;;;;4116169;28;19929;-84
2023/06/13 12:40:24;;;;;;;;;;;21.10;43.00;;;;;;4096399;28;19915;-84
2023/06/13 12:42:45;;;;;;;;;;;21.20;43.80;;;;;;4096234;28;19918;-82
2023/06/13 12:45:06;;;;;;;;;;;21.20;43.90;;;;;;4143461;28;19913;-83
2023/06/13 12:47:27;;;;;;;;;;;21.30;43.40;;;;;;4134623;28;19972;-83
2023/06/13 12:49:48;;;;;;;;;;;21.30;42.80;;;;;;4132004;28;20001;-83
2023/06/13 12:52:15;;;;;;;;;;;21.30;43.10;;;;;;4129598;28;19940;-84
2023/06/13 12:54:36;;;;;;;;;;;21.30;42.60;;;;;;4130034;28;19917;-83
2023/06/13 12:56:59;;;;;;;;;;;21.30;41.70;;;;;;4129954;28;19914;-83
2023/06/13 12:59:34;;;;;;;;;;;21.40;42.00;;;;;;4149367;28;19918;-83
2023/06/13 13:01:55;;;;;;;;;;;21.30;41.90;;;;;;4147877;28;20020;-84
2023/06/13 13:04:15;;;;;;;;;;;21.40;41.20;;;;;;4132080;28;20384;-81
2023/06/13 13:06:39;;;;;;;;;;;21.30;41.60;;;;;;4133818;28;19929;-83
2023/06/13 13:09:00;;;;;;;;;;;21.30;41.80;;;;;;4131474;28;20438;-83
2023/06/13 13:11:21;;;;;;;;;;;21.30;42.10;;;;;;4134043;28;20359;-84
2023/06/13 13:13:45;;;;;;;;;;;21.30;42.00;;;;;;4128657;28;19914;-85
2023/06/13 13:16:06;;;;;;;;;;;21.30;41.80;;;;;;4134425;28;20020;-84
2023/06/13 13:18:27;;;;;;;;;;;21.30;41.60;;;;;;4134918;28;20427;-83
2023/06/13 13:20:48;;;;;;;;;;;21.40;42.10;;;;;;4133932;28;19918;-84
2023/06/13 13:23:09;;;;;;;;;;;21.40;41.90;;;;;;4136030;28;19914;-82
2023/06/13 13:25:30;;;;;;;;;;;21.40;42.10;;;;;;4135409;28;20373;-83
2023/06/13 13:27:51;;;;;;;;;;;21.40;41.40;;;;;;4132012;28;20220;-83
2023/06/13 13:30:12;;;;;;;;;;;21.50;42.30;;;;;;4133128;28;20016;-82
2023/06/13 13:32:33;;;;;;;;;;;21.40;40.20;;;;;;4130905;28;19941;-84
2023/06/13 13:34:54;;;;;;;;;;;21.40;41.20;;;;;;4136678;28;19937;-82
2023/06/13 13:37:15;;;;;;;;;;;21.50;41.20;;;;;;4135844;28;19937;-83
2023/06/13 13:39:36;;;;;;;;;;;21.40;39.90;;;;;;4127872;28;19953;-82
2023/06/13 13:41:57;;;;;;;;;;;21.50;40.50;;;;;;4128746;28;20009;-80
2023/06/13 13:44:17;;;;;;;;;;;21.50;40.90;;;;;;4125992;28;19922;-83
2023/06/13 13:46:38;;;;;;;;;;;21.40;41.40;;;;;;4128287;28;19921;-82
2023/06/13 13:48:59;;;;;;;;;;;21.40;41.80;;;;;;4131101;28;19921;-81
2023/06/13 13:51:25;;;;;;;;;;;21.30;41.40;;;;;;4128047;28;19940;-83
2023/06/13 13:53:46;;;;;;;;;;;21.30;41.50;;;;;;4129942;28;19981;-82